Norfolk, Virginia
Traffic Map
Current Weather Conditions
Norfolk, Virginia
Clear
Clear
14°
Feels Like: 14°
Wind Chill: 14° Ceiling: Unl
Heat Index: 14° Visibility: 10mi
Dew Point: Wind: 10mph
Humidity: 53% Direction: 10° (N)
Pressure: 29.69in Gusts: 0mph
Raw Report DataKORF 262051Z 01009KT 10SM CLR 14/04 A2969 RMK AO2 SLP053 T01390044 50001
Traffic Incident Summary
Active as of:
Severity:
Category:
InformationThere was an issue retrieving the traffic information for this location. Please try a different location or try again shortly.
Advertisements
Track Severe Weather on mobile